Armony — 5IM517 — position and weather

sailwx.info

Track history (hours):
 
Tides and Currents Weather Stations Pressure Air Temp Water Temp Dewpoint Dewpoint Depression Visibility Wind Speed Wind Dir Waves Ship Positions

Armony

Last reported at 2014-Sep-17 08:09 UTC. Time now 2014-Sep-17 11:33 UTC.
Position N 40°26' E 029°05'.

Length 70 m; draft 4.6 m.

Type: Ship. MMSI: 677041700.

Date/timePositionNaut miles runAvg speedWind from/ knotsBaromVisibWave heightAir tempDewpointWater temp
2014-Sep-17 08:09N 40°26' E 029°05'18 5.0
2014-Sep-17 04:33N 40°38' E 028°46'8 7.8
2014-Sep-17 03:33N 40°45' E 028°52'7 7.5
2014-Sep-17 02:33N 40°52' E 028°54'8 7.9
2014-Sep-17 01:33N 40°59' E 028°59'  
2014-Sep-11 22:33N 40°58' E 028°60'7 7.0
2014-Sep-11 21:33N 40°51' E 029°01'7 6.8
2014-Sep-11 20:33N 40°45' E 029°04'4 3.8
2014-Sep-11 19:33N 40°43' E 028°60'1 1.2
2014-Sep-11 18:33N 40°42' E 028°60'2 1.8
2014-Sep-11 17:33N 40°42' E 029°02'2 1.8
2014-Sep-11 16:33N 40°43' E 029°04'2 1.7
2014-Sep-11 15:33N 40°44' E 029°06'2 1.5
2014-Sep-11 14:33N 40°45' E 029°07'1 0.8
2014-Sep-11 13:33N 40°45' E 029°08'0 0.5
2014-Sep-11 12:33N 40°46' E 029°08'1 0.6
2014-Sep-11 11:33N 40°46' E 029°09'1 0.7
2014-Sep-11 10:33N 40°46' E 029°09'1 0.8
2014-Sep-11 09:32N 40°46' E 029°10'0 0.3
2014-Sep-11 08:33N 40°46' E 029°11'0 0.2
2014-Sep-11 07:33N 40°47' E 029°11'0 0.3
2014-Sep-11 06:33N 40°47' E 029°11'0 0.3
2014-Sep-11 05:33N 40°47' E 029°12'3 3.5
2014-Sep-11 04:33N 40°45' E 029°16'7 7.3
2014-Sep-11 03:33N 40°45' E 029°25'  
Track history (hours):
 
Tides and Currents Weather Stations Pressure Air Temp Water Temp Dewpoint Dewpoint Depression Visibility Wind Speed Wind Dir Waves Ship Positions

Armony

Last reported at 2014-Sep-17 08:09 UTC. Time now 2014-Sep-17 11:33 UTC.
Position N 40°26' E 029°05'.

Length 70 m; draft 4.6 m.

Type: Ship. MMSI: 677041700.

Date/timePositionNaut miles runAvg speedWind from/ knotsBaromVisibWave heightAir tempDewpointWater temp
2014-Sep-17 08:09N 40°26' E 029°05'18 5.0
2014-Sep-17 04:33N 40°38' E 028°46'8 7.8
2014-Sep-17 03:33N 40°45' E 028°52'7 7.5
2014-Sep-17 02:33N 40°52' E 028°54'8 7.9
2014-Sep-17 01:33N 40°59' E 028°59'  
2014-Sep-11 22:33N 40°58' E 028°60'7 7.0
2014-Sep-11 21:33N 40°51' E 029°01'7 6.8
2014-Sep-11 20:33N 40°45' E 029°04'4 3.8
2014-Sep-11 19:33N 40°43' E 028°60'1 1.2
2014-Sep-11 18:33N 40°42' E 028°60'2 1.8
2014-Sep-11 17:33N 40°42' E 029°02'2 1.8
2014-Sep-11 16:33N 40°43' E 029°04'2 1.7
2014-Sep-11 15:33N 40°44' E 029°06'2 1.5
2014-Sep-11 14:33N 40°45' E 029°07'1 0.8
2014-Sep-11 13:33N 40°45' E 029°08'0 0.5
2014-Sep-11 12:33N 40°46' E 029°08'1 0.6
2014-Sep-11 11:33N 40°46' E 029°09'1 0.7
2014-Sep-11 10:33N 40°46' E 029°09'1 0.8
2014-Sep-11 09:32N 40°46' E 029°10'0 0.3
2014-Sep-11 08:33N 40°46' E 029°11'0 0.2
2014-Sep-11 07:33N 40°47' E 029°11'0 0.3
2014-Sep-11 06:33N 40°47' E 029°11'0 0.3
2014-Sep-11 05:33N 40°47' E 029°12'3 3.5
2014-Sep-11 04:33N 40°45' E 029°16'7 7.3
2014-Sep-11 03:33N 40°45' E 029°25'  

Dump ship's entire track history